sensor_id;sensor_type;location;lat;lon;timestamp;pressure;altitude;pressure_sealevel;temperature;humidity
70921;BME280;58572;48.110;19.838;2023-03-21T00:00:01;97683.19;;;9.49;59.85
70921;BME280;58572;48.110;19.838;2023-03-21T00:02:28;97592.91;;;8.94;58.76
70921;BME280;58572;48.110;19.838;2023-03-21T00:04:56;97681.03;;;8.87;65.70
70921;BME280;58572;48.110;19.838;2023-03-21T00:07:23;97677.25;;;9.42;63.49
70921;BME280;58572;48.110;19.838;2023-03-21T00:09:50;97674.66;;;8.47;67.45
70921;BME280;58572;48.110;19.838;2023-03-21T00:12:19;97678.44;;;8.56;69.16
70921;BME280;58572;48.110;19.838;2023-03-21T00:14:46;97670.41;;;9.01;66.48
70921;BME280;58572;48.110;19.838;2023-03-21T00:17:15;97672.47;;;9.19;63.05
70921;BME280;58572;48.110;19.838;2023-03-21T00:19:42;97667.66;;;9.06;67.21
70921;BME280;58572;48.110;19.838;2023-03-21T00:22:10;97668.69;;;9.20;67.28
70921;BME280;58572;48.110;19.838;2023-03-21T00:24:37;97671.63;;;9.28;66.79
70921;BME280;58572;48.110;19.838;2023-03-21T00:27:05;97670.41;;;9.89;63.81
70921;BME280;58572;48.110;19.838;2023-03-21T00:29:33;97665.13;;;10.03;58.94
70921;BME280;58572;48.110;19.838;2023-03-21T00:31:59;97668.38;;;9.26;62.68
70921;BME280;58572;48.110;19.838;2023-03-21T00:34:28;97669.25;;;9.17;65.49
70921;BME280;58572;48.110;19.838;2023-03-21T00:36:55;97666.72;;;8.71;69.01
70921;BME280;58572;48.110;19.838;2023-03-21T00:39:22;97634.09;;;8.96;66.29
70921;BME280;58572;48.110;19.838;2023-03-21T00:41:49;97666.34;;;8.98;68.17
70921;BME280;58572;48.110;19.838;2023-03-21T00:44:16;97657.69;;;8.96;68.78
70921;BME280;58572;48.110;19.838;2023-03-21T00:46:43;97663.06;;;9.06;67.68
70921;BME280;58572;48.110;19.838;2023-03-21T00:49:10;97656.97;;;8.75;69.22
70921;BME280;58572;48.110;19.838;2023-03-21T00:51:38;97653.25;;;9.15;64.77
70921;BME280;58572;48.110;19.838;2023-03-21T00:54:10;97659.88;;;8.94;68.58
70921;BME280;58572;48.110;19.838;2023-03-21T00:56:37;97657.28;;;9.23;67.14
70921;BME280;58572;48.110;19.838;2023-03-21T00:59:04;97547.97;;;8.83;65.98
70921;BME280;58572;48.110;19.838;2023-03-21T01:01:31;97527.25;;;8.58;65.93
70921;BME280;58572;48.110;19.838;2023-03-21T01:03:59;97631.47;;;8.76;65.97
70921;BME280;58572;48.110;19.838;2023-03-21T01:06:30;97658.19;;;9.52;65.93
70921;BME280;58572;48.110;19.838;2023-03-21T01:08:58;97547.03;;;8.54;66.66
70921;BME280;58572;48.110;19.838;2023-03-21T01:11:27;97562.25;;;8.29;67.35
70921;BME280;58572;48.110;19.838;2023-03-21T01:13:54;97655.91;;;9.25;66.86
70921;BME280;58572;48.110;19.838;2023-03-21T01:16:21;97650.50;;;9.20;67.68
70921;BME280;58572;48.110;19.838;2023-03-21T01:18:48;97655.44;;;9.08;67.65
70921;BME280;58572;48.110;19.838;2023-03-21T01:21:15;97656.38;;;8.88;68.19
70921;BME280;58572;48.110;19.838;2023-03-21T01:23:43;97647.66;;;8.96;67.59
70921;BME280;58572;48.110;19.838;2023-03-21T01:26:13;97646.97;;;9.20;67.32
70921;BME280;58572;48.110;19.838;2023-03-21T01:28:41;97650.78;;;9.19;66.56
70921;BME280;58572;48.110;19.838;2023-03-21T01:31:10;97644.81;;;9.17;67.33
70921;BME280;58572;48.110;19.838;2023-03-21T01:33:38;97645.59;;;9.22;65.38
70921;BME280;58572;48.110;19.838;2023-03-21T01:36:06;97565.69;;;8.66;67.69
70921;BME280;58572;48.110;19.838;2023-03-21T01:38:34;97642.81;;;8.88;68.66
70921;BME280;58572;48.110;19.838;2023-03-21T01:41:01;97647.22;;;8.74;68.83
70921;BME280;58572;48.110;19.838;2023-03-21T01:43:31;97652.13;;;8.67;69.60
70921;BME280;58572;48.110;19.838;2023-03-21T01:46:35;97645.84;;;9.26;65.84
70921;BME280;58572;48.110;19.838;2023-03-21T01:49:07;97646.59;;;8.92;68.49
70921;BME280;58572;48.110;19.838;2023-03-21T01:51:41;97604.91;;;8.78;68.26
70921;BME280;58572;48.110;19.838;2023-03-21T01:54:14;97641.41;;;9.45;65.27
70921;BME280;58572;48.110;19.838;2023-03-21T01:56:44;97642.63;;;9.68;62.40
70921;BME280;58572;48.110;19.838;2023-03-21T01:59:18;97646.91;;;9.74;61.04
70921;BME280;58572;48.110;19.838;2023-03-21T02:01:47;97646.81;;;7.91;69.63
70921;BME280;58572;48.110;19.838;2023-03-21T02:04:18;97641.97;;;8.93;64.52
70921;BME280;58572;48.110;19.838;2023-03-21T02:06:56;97646.91;;;9.30;62.45
70921;BME280;58572;48.110;19.838;2023-03-21T02:09:27;97645.53;;;8.88;66.68
70921;BME280;58572;48.110;19.838;2023-03-21T02:11:58;97649.97;;;8.64;67.41
70921;BME280;58572;48.110;19.838;2023-03-21T02:14:27;97639.25;;;8.93;64.99
70921;BME280;58572;48.110;19.838;2023-03-21T02:17:01;97648.13;;;8.39;69.82
70921;BME280;58572;48.110;19.838;2023-03-21T02:22:43;97633.69;;;8.64;69.11
70921;BME280;58572;48.110;19.838;2023-03-21T02:28:20;97636.03;;;9.35;62.97
70921;BME280;58572;48.110;19.838;2023-03-21T02:31:14;97636.63;;;9.27;62.83
70921;BME280;58572;48.110;19.838;2023-03-21T02:34:02;97639.56;;;8.86;67.62
70921;BME280;58572;48.110;19.838;2023-03-21T02:36:59;97640.78;;;8.55;70.55
70921;BME280;58572;48.110;19.838;2023-03-21T02:39:34;97639.97;;;9.14;67.79
70921;BME280;58572;48.110;19.838;2023-03-21T02:42:09;97638.44;;;8.98;69.14
70921;BME280;58572;48.110;19.838;2023-03-21T02:44:43;97639.97;;;9.14;68.74
70921;BME280;58572;48.110;19.838;2023-03-21T02:47:13;97637.25;;;9.14;68.75
70921;BME280;58572;48.110;19.838;2023-03-21T02:49:45;97634.41;;;9.39;68.42
70921;BME280;58572;48.110;19.838;2023-03-21T02:52:18;97620.63;;;9.25;68.26
70921;BME280;58572;48.110;19.838;2023-03-21T02:54:47;97642.88;;;9.27;68.15
70921;BME280;58572;48.110;19.838;2023-03-21T02:57:17;97528.38;;;8.32;67.54
70921;BME280;58572;48.110;19.838;2023-03-21T02:59:45;97641.75;;;8.79;70.14
70921;BME280;58572;48.110;19.838;2023-03-21T03:02:14;97630.31;;;8.92;69.91
70921;BME280;58572;48.110;19.838;2023-03-21T03:04:42;97632.13;;;9.07;68.24
70921;BME280;58572;48.110;19.838;2023-03-21T03:07:22;97523.81;;;8.87;64.99
70921;BME280;58572;48.110;19.838;2023-03-21T03:10:05;97630.25;;;9.86;64.67
70921;BME280;58572;48.110;19.838;2023-03-21T03:12:42;97630.84;;;8.94;68.99
70921;BME280;58572;48.110;19.838;2023-03-21T03:15:18;97629.19;;;8.99;68.43
70921;BME280;58572;48.110;19.838;2023-03-21T03:17:58;97621.53;;;9.55;66.37
70921;BME280;58572;48.110;19.838;2023-03-21T03:20:32;97549.75;;;8.98;66.93
70921;BME280;58572;48.110;19.838;2023-03-21T03:23:11;97622.00;;;9.96;62.29
70921;BME280;58572;48.110;19.838;2023-03-21T03:25:43;97626.47;;;9.82;62.32
70921;BME280;58572;48.110;19.838;2023-03-21T03:28:18;97625.09;;;9.84;61.97
70921;BME280;58572;48.110;19.838;2023-03-21T03:30:48;97627.63;;;8.87;67.72
70921;BME280;58572;48.110;19.838;2023-03-21T03:33:16;97628.75;;;9.31;66.15
70921;BME280;58572;48.110;19.838;2023-03-21T03:35:49;97627.53;;;9.08;66.60
70921;BME280;58572;48.110;19.838;2023-03-21T03:38:20;97619.13;;;9.53;63.76
70921;BME280;58572;48.110;19.838;2023-03-21T03:40:52;97622.19;;;9.76;61.84
70921;BME280;58572;48.110;19.838;2023-03-21T03:43:22;97628.03;;;9.59;63.12
70921;BME280;58572;48.110;19.838;2023-03-21T03:45:55;97622.09;;;9.08;67.50
70921;BME280;58572;48.110;19.838;2023-03-21T03:48:25;97623.88;;;9.27;65.48
70921;BME280;58572;48.110;19.838;2023-03-21T03:50:57;97547.38;;;9.31;65.80
70921;BME280;58572;48.110;19.838;2023-03-21T03:53:32;97625.88;;;9.90;63.65
70921;BME280;58572;48.110;19.838;2023-03-21T03:56:02;97625.34;;;9.54;65.37
70921;BME280;58572;48.110;19.838;2023-03-21T03:58:31;97616.41;;;9.09;66.98
70921;BME280;58572;48.110;19.838;2023-03-21T04:00:58;97629.06;;;9.97;64.24
70921;BME280;58572;48.110;19.838;2023-03-21T04:03:25;97638.72;;;10.08;64.23
70921;BME280;58572;48.110;19.838;2023-03-21T04:05:52;97645.47;;;9.82;62.96
70921;BME280;58572;48.110;19.838;2023-03-21T04:08:19;97646.78;;;10.18;62.31
70921;BME280;58572;48.110;19.838;2023-03-21T04:10:49;97649.94;;;10.02;65.14
70921;BME280;58572;48.110;19.838;2023-03-21T04:13:16;97653.78;;;9.62;66.79
70921;BME280;58572;48.110;19.838;2023-03-21T04:15:44;97639.41;;;9.95;65.55
70921;BME280;58572;48.110;19.838;2023-03-21T04:18:11;97644.88;;;9.56;66.90
70921;BME280;58572;48.110;19.838;2023-03-21T04:20:38;97655.59;;;9.32;68.18
70921;BME280;58572;48.110;19.838;2023-03-21T04:23:05;97637.72;;;9.26;67.04
70921;BME280;58572;48.110;19.838;2023-03-21T04:25:33;97643.94;;;9.32;67.82
70921;BME280;58572;48.110;19.838;2023-03-21T04:28:02;97642.69;;;9.14;68.00
70921;BME280;58572;48.110;19.838;2023-03-21T04:30:29;97640.47;;;9.21;67.13
70921;BME280;58572;48.110;19.838;2023-03-21T04:32:58;97585.97;;;8.73;68.19
70921;BME280;58572;48.110;19.838;2023-03-21T04:35:26;97642.28;;;8.86;67.53
70921;BME280;58572;48.110;19.838;2023-03-21T04:37:53;97641.50;;;8.76;67.17
70921;BME280;58572;48.110;19.838;2023-03-21T04:40:20;97642.03;;;8.78;67.42
70921;BME280;58572;48.110;19.838;2023-03-21T04:42:50;97641.38;;;8.16;69.44
70921;BME280;58572;48.110;19.838;2023-03-21T04:45:18;97638.66;;;8.06;71.21
70921;BME280;58572;48.110;19.838;2023-03-21T04:47:45;97642.41;;;8.56;68.07
70921;BME280;58572;48.110;19.838;2023-03-21T04:50:12;97629.75;;;8.00;70.58
70921;BME280;58572;48.110;19.838;2023-03-21T04:52:40;97634.31;;;8.41;68.83
70921;BME280;58572;48.110;19.838;2023-03-21T04:55:08;97630.78;;;8.20;71.09
70921;BME280;58572;48.110;19.838;2023-03-21T04:57:35;97629.44;;;8.48;70.29
70921;BME280;58572;48.110;19.838;2023-03-21T05:00:05;97621.44;;;8.77;68.63
70921;BME280;58572;48.110;19.838;2023-03-21T05:02:37;97617.31;;;9.73;62.02
70921;BME280;58572;48.110;19.838;2023-03-21T05:05:04;97549.78;;;9.37;60.77
70921;BME280;58572;48.110;19.838;2023-03-21T05:07:31;97630.84;;;9.78;61.40
70921;BME280;58572;48.110;19.838;2023-03-21T05:09:58;97633.91;;;8.78;67.10
70921;BME280;58572;48.110;19.838;2023-03-21T05:12:25;97631.63;;;8.15;69.24
70921;BME280;58572;48.110;19.838;2023-03-21T05:14:55;97632.88;;;8.63;66.71
70921;BME280;58572;48.110;19.838;2023-03-21T05:17:22;97632.75;;;9.43;62.38
70921;BME280;58572;48.110;19.838;2023-03-21T05:19:51;97635.00;;;9.70;61.61
70921;BME280;58572;48.110;19.838;2023-03-21T05:22:18;97637.81;;;9.11;66.01
70921;BME280;58572;48.110;19.838;2023-03-21T05:24:45;97645.06;;;8.71;67.56
70921;BME280;58572;48.110;19.838;2023-03-21T05:27:15;97639.53;;;8.91;65.25
70921;BME280;58572;48.110;19.838;2023-03-21T05:30:00;97634.25;;;9.59;65.26
70921;BME280;58572;48.110;19.838;2023-03-21T05:32:27;97640.88;;;10.11;59.91
70921;BME280;58572;48.110;19.838;2023-03-21T05:34:55;97639.00;;;9.78;61.93
70921;BME280;58572;48.110;19.838;2023-03-21T05:37:23;97608.91;;;9.40;64.78
70921;BME280;58572;48.110;19.838;2023-03-21T05:39:50;97579.59;;;8.44;67.84
70921;BME280;58572;48.110;19.838;2023-03-21T05:42:18;97641.75;;;9.34;67.09
70921;BME280;58572;48.110;19.838;2023-03-21T05:44:45;97637.50;;;9.96;63.81
70921;BME280;58572;48.110;19.838;2023-03-21T05:47:13;97645.28;;;10.36;61.55
70921;BME280;58572;48.110;19.838;2023-03-21T05:49:40;97639.69;;;10.75;62.01
70921;BME280;58572;48.110;19.838;2023-03-21T05:52:09;97640.91;;;10.40;59.81
70921;BME280;58572;48.110;19.838;2023-03-21T05:54:36;97641.53;;;9.98;64.86
70921;BME280;58572;48.110;19.838;2023-03-21T05:57:04;97643.75;;;10.54;62.68
70921;BME280;58572;48.110;19.838;2023-03-21T05:59:31;97651.38;;;10.52;60.79
70921;BME280;58572;48.110;19.838;2023-03-21T06:01:58;97652.88;;;10.63;62.73
70921;BME280;58572;48.110;19.838;2023-03-21T06:04:26;97648.81;;;10.37;65.55
70921;BME280;58572;48.110;19.838;2023-03-21T06:06:53;97642.59;;;10.84;63.53
70921;BME280;58572;48.110;19.838;2023-03-21T06:09:22;97640.44;;;11.42;59.74
70921;BME280;58572;48.110;19.838;2023-03-21T06:11:51;97648.66;;;11.18;60.42
70921;BME280;58572;48.110;19.838;2023-03-21T06:14:19;97584.41;;;10.61;60.15
70921;BME280;58572;48.110;19.838;2023-03-21T06:16:46;97655.47;;;10.97;60.91
70921;BME280;58572;48.110;19.838;2023-03-21T06:19:13;97647.22;;;11.82;57.80
70921;BME280;58572;48.110;19.838;2023-03-21T06:21:41;97633.72;;;11.91;58.71
70921;BME280;58572;48.110;19.838;2023-03-21T06:24:08;97651.50;;;10.90;61.29
70921;BME280;58572;48.110;19.838;2023-03-21T06:26:36;97634.66;;;12.46;57.75
70921;BME280;58572;48.110;19.838;2023-03-21T06:29:03;97636.75;;;12.36;56.64
70921;BME280;58572;48.110;19.838;2023-03-21T06:31:30;97642.38;;;12.58;56.30
70921;BME280;58572;48.110;19.838;2023-03-21T06:33:57;97644.59;;;12.56;57.77
70921;BME280;58572;48.110;19.838;2023-03-21T06:36:24;97583.97;;;11.86;56.82
70921;BME280;58572;48.110;19.838;2023-03-21T06:38:51;97566.97;;;12.07;56.66
70921;BME280;58572;48.110;19.838;2023-03-21T06:41:18;97638.31;;;12.09;57.11
70921;BME280;58572;48.110;19.838;2023-03-21T06:43:47;97641.72;;;12.01;58.63
70921;BME280;58572;48.110;19.838;2023-03-21T06:46:14;97636.91;;;12.86;55.70
70921;BME280;58572;48.110;19.838;2023-03-21T06:48:41;97640.34;;;13.19;55.23
70921;BME280;58572;48.110;19.838;2023-03-21T06:51:11;97598.94;;;12.75;55.68
70921;BME280;58572;48.110;19.838;2023-03-21T06:53:39;97621.09;;;13.10;55.29
70921;BME280;58572;48.110;19.838;2023-03-21T06:56:06;97643.63;;;13.79;53.86
70921;BME280;58572;48.110;19.838;2023-03-21T06:58:34;97636.72;;;13.82;53.52
70921;BME280;58572;48.110;19.838;2023-03-21T07:01:03;97633.63;;;13.38;55.96
70921;BME280;58572;48.110;19.838;2023-03-21T07:03:31;97636.56;;;13.15;55.08
70921;BME280;58572;48.110;19.838;2023-03-21T07:06:03;97647.41;;;12.51;57.73
70921;BME280;58572;48.110;19.838;2023-03-21T07:08:31;97637.19;;;12.98;56.23
70921;BME280;58572;48.110;19.838;2023-03-21T07:10:58;97545.19;;;12.62;56.06
70921;BME280;58572;48.110;19.838;2023-03-21T07:13:25;97642.38;;;12.86;56.51
70921;BME280;58572;48.110;19.838;2023-03-21T07:15:52;97533.38;;;11.66;57.85
70921;BME280;58572;48.110;19.838;2023-03-21T07:18:21;97641.81;;;13.11;55.33
70921;BME280;58572;48.110;19.838;2023-03-21T07:20:49;97639.94;;;12.98;55.79
70921;BME280;58572;48.110;19.838;2023-03-21T07:23:17;97644.19;;;12.76;54.10
70921;BME280;58572;48.110;19.838;2023-03-21T07:25:44;97570.81;;;12.20;55.50
70921;BME280;58572;48.110;19.838;2023-03-21T07:28:11;97642.78;;;12.65;55.14
70921;BME280;58572;48.110;19.838;2023-03-21T07:30:38;97644.88;;;12.82;55.39
70921;BME280;58572;48.110;19.838;2023-03-21T07:33:05;97641.25;;;13.00;55.21
70921;BME280;58572;48.110;19.838;2023-03-21T07:35:34;97587.06;;;13.07;54.11
70921;BME280;58572;48.110;19.838;2023-03-21T07:38:01;97644.22;;;13.76;53.88
70921;BME280;58572;48.110;19.838;2023-03-21T07:40:28;97645.91;;;13.50;52.95
70921;BME280;58572;48.110;19.838;2023-03-21T07:42:55;97639.91;;;13.11;53.90
70921;BME280;58572;48.110;19.838;2023-03-21T07:45:22;97644.00;;;13.86;52.78
70921;BME280;58572;48.110;19.838;2023-03-21T07:47:50;97648.72;;;14.48;51.84
70921;BME280;58572;48.110;19.838;2023-03-21T07:50:18;97649.47;;;13.86;52.68
70921;BME280;58572;48.110;19.838;2023-03-21T07:52:46;97667.22;;;13.25;53.82
70921;BME280;58572;48.110;19.838;2023-03-21T07:55:13;97657.34;;;14.41;52.62
70921;BME280;58572;48.110;19.838;2023-03-21T07:57:41;97658.50;;;14.18;50.63
70921;BME280;58572;48.110;19.838;2023-03-21T08:00:10;97658.66;;;15.06;50.03
70921;BME280;58572;48.110;19.838;2023-03-21T08:02:37;97650.63;;;15.26;48.89
70921;BME280;58572;48.110;19.838;2023-03-21T08:05:04;97651.16;;;14.80;48.99
70921;BME280;58572;48.110;19.838;2023-03-21T08:07:31;97658.59;;;14.88;49.01
70921;BME280;58572;48.110;19.838;2023-03-21T08:09:59;97657.75;;;14.79;50.01
70921;BME280;58572;48.110;19.838;2023-03-21T08:12:26;97650.69;;;14.25;50.51
70921;BME280;58572;48.110;19.838;2023-03-21T08:14:53;97657.75;;;14.48;49.69
70921;BME280;58572;48.110;19.838;2023-03-21T08:17:20;97656.06;;;15.66;48.31
70921;BME280;58572;48.110;19.838;2023-03-21T08:19:47;97638.31;;;15.89;47.84
70921;BME280;58572;48.110;19.838;2023-03-21T08:22:14;97642.34;;;15.75;47.79
70921;BME280;58572;48.110;19.838;2023-03-21T08:24:41;97652.00;;;14.89;48.59
70921;BME280;58572;48.110;19.838;2023-03-21T08:27:10;97633.25;;;16.90;45.60
70921;BME280;58572;48.110;19.838;2023-03-21T08:29:37;97638.44;;;17.63;44.83
70921;BME280;58572;48.110;19.838;2023-03-21T08:32:07;97611.00;;;17.54;43.65
70921;BME280;58572;48.110;19.838;2023-03-21T08:34:35;97643.44;;;16.17;46.31
70921;BME280;58572;48.110;19.838;2023-03-21T08:37:02;97642.50;;;15.95;44.88
70921;BME280;58572;48.110;19.838;2023-03-21T08:39:29;97635.25;;;16.64;42.99
70921;BME280;58572;48.110;19.838;2023-03-21T08:41:56;97622.25;;;19.54;38.53
70921;BME280;58572;48.110;19.838;2023-03-21T08:44:25;97629.41;;;19.19;40.36
70921;BME280;58572;48.110;19.838;2023-03-21T08:46:52;97646.94;;;16.35;43.09
70921;BME280;58572;48.110;19.838;2023-03-21T08:49:19;97633.44;;;18.97;40.36
70921;BME280;58572;48.110;19.838;2023-03-21T08:51:46;97629.59;;;19.62;37.20
70921;BME280;58572;48.110;19.838;2023-03-21T08:54:18;97565.63;;;18.35;41.20
70921;BME280;58572;48.110;19.838;2023-03-21T08:56:46;97639.81;;;17.98;43.51
70921;BME280;58572;48.110;19.838;2023-03-21T08:59:13;97641.66;;;18.39;42.64
70921;BME280;58572;48.110;19.838;2023-03-21T09:01:41;97642.50;;;17.36;43.99
70921;BME280;58572;48.110;19.838;2023-03-21T09:04:09;97650.16;;;18.01;42.44
70921;BME280;58572;48.110;19.838;2023-03-21T09:06:37;97556.97;;;16.66;43.75
70921;BME280;58572;48.110;19.838;2023-03-21T09:09:06;97649.16;;;17.35;42.94
70921;BME280;58572;48.110;19.838;2023-03-21T09:11:34;97645.34;;;17.77;42.98
70921;BME280;58572;48.110;19.838;2023-03-21T09:14:01;97641.91;;;17.80;42.15
70921;BME280;58572;48.110;19.838;2023-03-21T09:16:28;97645.66;;;17.26;43.08
70921;BME280;58572;48.110;19.838;2023-03-21T09:18:57;97640.53;;;17.15;43.70
70921;BME280;58572;48.110;19.838;2023-03-21T09:21:25;97642.31;;;17.41;41.14
70921;BME280;58572;48.110;19.838;2023-03-21T09:23:53;97543.00;;;17.72;41.22
70921;BME280;58572;48.110;19.838;2023-03-21T09:26:23;97629.47;;;18.61;39.94
70921;BME280;58572;48.110;19.838;2023-03-21T09:28:50;97633.09;;;17.66;41.55
70921;BME280;58572;48.110;19.838;2023-03-21T09:31:18;97635.59;;;18.46;41.85
70921;BME280;58572;48.110;19.838;2023-03-21T09:33:47;97631.41;;;17.53;41.86
70921;BME280;58572;48.110;19.838;2023-03-21T09:36:17;97577.56;;;18.39;39.53
70921;BME280;58572;48.110;19.838;2023-03-21T09:38:47;97635.50;;;18.09;41.40
70921;BME280;58572;48.110;19.838;2023-03-21T09:41:28;97636.22;;;17.85;42.14
70921;BME280;58572;48.110;19.838;2023-03-21T09:44:05;97633.31;;;18.48;40.76
70921;BME280;58572;48.110;19.838;2023-03-21T09:46:41;97633.34;;;18.60;41.07
70921;BME280;58572;48.110;19.838;2023-03-21T09:49:15;97633.94;;;18.66;39.61
70921;BME280;58572;48.110;19.838;2023-03-21T09:51:49;97630.78;;;19.00;40.18
70921;BME280;58572;48.110;19.838;2023-03-21T09:54:21;97606.44;;;19.02;40.27
70921;BME280;58572;48.110;19.838;2023-03-21T09:56:53;97583.59;;;16.19;42.31
70921;BME280;58572;48.110;19.838;2023-03-21T09:59:24;97616.91;;;18.97;40.31
70921;BME280;58572;48.110;19.838;2023-03-21T10:01:53;97616.78;;;20.10;37.92
70921;BME280;58572;48.110;19.838;2023-03-21T10:04:21;97620.69;;;18.80;38.69
70921;BME280;58572;48.110;19.838;2023-03-21T10:06:55;97607.75;;;22.90;34.71
70921;BME280;58572;48.110;19.838;2023-03-21T10:09:26;97587.03;;;22.61;34.06
70921;BME280;58572;48.110;19.838;2023-03-21T10:11:57;97608.41;;;23.06;32.25
70921;BME280;58572;48.110;19.838;2023-03-21T10:14:28;97600.47;;;23.58;32.68
70921;BME280;58572;48.110;19.838;2023-03-21T10:16:58;97593.56;;;24.04;30.83
70921;BME280;58572;48.110;19.838;2023-03-21T10:19:27;97565.75;;;20.95;35.02
70921;BME280;58572;48.110;19.838;2023-03-21T10:21:56;97544.41;;;21.46;34.34
70921;BME280;58572;48.110;19.838;2023-03-21T10:24:25;97598.53;;;21.63;36.31
70921;BME280;58572;48.110;19.838;2023-03-21T10:26:55;97593.09;;;23.69;33.07
70921;BME280;58572;48.110;19.838;2023-03-21T10:29:26;97590.78;;;24.04;34.26
70921;BME280;58572;48.110;19.838;2023-03-21T10:31:55;97595.69;;;23.84;32.07
70921;BME280;58572;48.110;19.838;2023-03-21T10:34:27;97595.22;;;22.54;33.82
70921;BME280;58572;48.110;19.838;2023-03-21T10:36:58;97581.25;;;23.45;32.14
70921;BME280;58572;48.110;19.838;2023-03-21T10:39:27;97582.97;;;24.13;31.21
70921;BME280;58572;48.110;19.838;2023-03-21T10:41:57;97572.69;;;26.48;27.99
70921;BME280;58572;48.110;19.838;2023-03-21T10:44:29;97583.66;;;20.69;32.69
70921;BME280;58572;48.110;19.838;2023-03-21T10:46:58;97589.66;;;20.56;37.66
70921;BME280;58572;48.110;19.838;2023-03-21T10:49:29;97521.47;;;19.57;37.23
70921;BME280;58572;48.110;19.838;2023-03-21T10:52:01;97609.09;;;18.87;38.87
70921;BME280;58572;48.110;19.838;2023-03-21T10:54:31;97597.94;;;19.07;36.52
70921;BME280;58572;48.110;19.838;2023-03-21T10:57:03;97596.69;;;19.69;36.61
70921;BME280;58572;48.110;19.838;2023-03-21T10:59:36;97597.03;;;19.03;39.27
70921;BME280;58572;48.110;19.838;2023-03-21T11:02:05;97592.16;;;19.37;37.60
70921;BME280;58572;48.110;19.838;2023-03-21T11:04:32;97594.22;;;19.92;38.35
70921;BME280;58572;48.110;19.838;2023-03-21T11:07:04;97597.47;;;19.30;39.72
70921;BME280;58572;48.110;19.838;2023-03-21T11:09:46;97596.28;;;18.58;40.15
70921;BME280;58572;48.110;19.838;2023-03-21T11:12:15;97529.88;;;17.90;40.34
70921;BME280;58572;48.110;19.838;2023-03-21T11:14:44;97571.09;;;18.80;39.64
70921;BME280;58572;48.110;19.838;2023-03-21T11:17:25;97599.69;;;18.42;39.70
70921;BME280;58572;48.110;19.838;2023-03-21T11:19:57;97599.13;;;18.37;40.57
70921;BME280;58572;48.110;19.838;2023-03-21T11:22:29;97598.34;;;17.41;42.10
70921;BME280;58572;48.110;19.838;2023-03-21T11:24:59;97593.13;;;17.90;41.58
70921;BME280;58572;48.110;19.838;2023-03-21T11:27:27;97590.16;;;17.53;41.35
70921;BME280;58572;48.110;19.838;2023-03-21T11:29:56;97584.13;;;18.01;40.90
70921;BME280;58572;48.110;19.838;2023-03-21T11:32:26;97580.91;;;17.58;42.32
70921;BME280;58572;48.110;19.838;2023-03-21T11:34:58;97585.00;;;17.31;40.43
70921;BME280;58572;48.110;19.838;2023-03-21T11:37:32;97585.13;;;17.97;40.74
70921;BME280;58572;48.110;19.838;2023-03-21T11:40:17;97574.88;;;17.64;41.75
70921;BME280;58572;48.110;19.838;2023-03-21T11:42:46;97573.38;;;18.08;41.64
70921;BME280;58572;48.110;19.838;2023-03-21T11:45:16;97571.31;;;17.72;41.23
70921;BME280;58572;48.110;19.838;2023-03-21T11:47:45;97571.63;;;18.04;41.09
70921;BME280;58572;48.110;19.838;2023-03-21T11:50:26;97568.91;;;18.16;41.34
70921;BME280;58572;48.110;19.838;2023-03-21T11:53:15;97571.19;;;17.69;41.10
70921;BME280;58572;48.110;19.838;2023-03-21T11:55:54;97566.03;;;17.38;41.00
70921;BME280;58572;48.110;19.838;2023-03-21T11:58:33;97487.69;;;16.60;42.02
70921;BME280;58572;48.110;19.838;2023-03-21T12:01:08;97561.84;;;16.90;41.44
70921;BME280;58572;48.110;19.838;2023-03-21T12:04:03;97538.22;;;17.18;41.34
70921;BME280;58572;48.110;19.838;2023-03-21T12:06:36;97569.03;;;17.74;40.84
70921;BME280;58572;48.110;19.838;2023-03-21T12:12:05;97570.06;;;17.19;39.49
70921;BME280;58572;48.110;19.838;2023-03-21T12:14:42;97567.25;;;17.49;40.72
70921;BME280;58572;48.110;19.838;2023-03-21T12:17:20;97556.97;;;17.58;39.69
70921;BME280;58572;48.110;19.838;2023-03-21T12:20:06;97562.81;;;17.56;40.34
70921;BME280;58572;48.110;19.838;2023-03-21T12:22:45;97565.91;;;17.13;41.07
70921;BME280;58572;48.110;19.838;2023-03-21T12:25:18;97561.47;;;17.42;39.62
70921;BME280;58572;48.110;19.838;2023-03-21T12:27:53;97553.59;;;17.82;38.82
70921;BME280;58572;48.110;19.838;2023-03-21T12:30:32;97549.97;;;17.69;39.71
70921;BME280;58572;48.110;19.838;2023-03-21T12:33:11;97555.31;;;17.45;39.00
70921;BME280;58572;48.110;19.838;2023-03-21T12:35:53;97547.22;;;18.02;38.80
70921;BME280;58572;48.110;19.838;2023-03-21T12:38:33;97548.47;;;17.93;39.03
70921;BME280;58572;48.110;19.838;2023-03-21T12:41:15;97542.84;;;17.89;39.00
70921;BME280;58572;48.110;19.838;2023-03-21T12:43:50;97473.56;;;16.79;39.98
70921;BME280;58572;48.110;19.838;2023-03-21T12:46:23;97546.63;;;17.97;39.78
70921;BME280;58572;48.110;19.838;2023-03-21T12:48:56;97536.94;;;17.78;39.03
70921;BME280;58572;48.110;19.838;2023-03-21T12:51:28;97538.28;;;17.51;39.22
70921;BME280;58572;48.110;19.838;2023-03-21T12:54:03;97536.94;;;17.78;39.63
70921;BME280;58572;48.110;19.838;2023-03-21T12:56:36;97529.59;;;18.15;39.14
70921;BME280;58572;48.110;19.838;2023-03-21T12:59:15;97531.03;;;17.89;38.12
70921;BME280;58572;48.110;19.838;2023-03-21T13:01:45;97527.81;;;17.86;39.74
70921;BME280;58572;48.110;19.838;2023-03-21T13:04:41;97526.66;;;17.88;39.66
70921;BME280;58572;48.110;19.838;2023-03-21T13:07:16;97524.22;;;17.74;39.29
70921;BME280;58572;48.110;19.838;2023-03-21T13:09:44;97521.53;;;17.23;40.92
70921;BME280;58572;48.110;19.838;2023-03-21T13:12:39;97518.97;;;17.81;40.35
70921;BME280;58572;48.110;19.838;2023-03-21T13:15:39;97522.28;;;16.91;41.43
70921;BME280;58572;48.110;19.838;2023-03-21T13:18:17;97516.31;;;17.10;41.34
70921;BME280;58572;48.110;19.838;2023-03-21T13:20:49;97515.13;;;17.19;41.89